createdAt,value
2022-08-26T00:01:54.104Z,71.26
2022-08-26T00:04:58.387Z,71.57
2022-08-26T00:07:36.189Z,71.98
2022-08-26T00:10:14.087Z,71.72
2022-08-26T00:12:51.589Z,71.73
2022-08-26T00:15:30.917Z,71.74
2022-08-26T00:18:21.710Z,71.46
2022-08-26T00:21:00.592Z,71.37
2022-08-26T00:23:42.337Z,71.87
2022-08-26T00:26:16.849Z,72.50
2022-08-26T00:28:55.070Z,72.13
2022-08-26T00:31:34.019Z,71.91
2022-08-26T00:34:11.292Z,71.97
2022-08-26T00:36:51.979Z,72.20
2022-08-26T00:39:30.563Z,72.38
2022-08-26T00:42:10.979Z,72.46
2022-08-26T00:44:47.806Z,72.34
2022-08-26T00:47:36.148Z,72.15
2022-08-26T00:50:16.610Z,72.08
2022-08-26T00:52:54.683Z,72.33
2022-08-26T00:55:44.086Z,72.62
2022-08-26T00:58:21.643Z,73.14
2022-08-26T01:01:01.307Z,73.16
2022-08-26T01:03:37.869Z,73.26
2022-08-26T01:06:16.815Z,73.04
2022-08-26T01:08:53.590Z,73.05
2022-08-26T01:11:34.116Z,73.24
2022-08-26T01:14:10.300Z,73.85
2022-08-26T01:16:50.802Z,73.80
2022-08-26T01:19:46.757Z,73.81
2022-08-26T01:22:31.772Z,73.64
2022-08-26T01:25:13.051Z,73.42
2022-08-26T01:27:46.033Z,73.40
2022-08-26T01:30:32.847Z,73.20
2022-08-26T01:33:10.135Z,73.29
2022-08-26T01:35:48.868Z,73.11
2022-08-26T01:38:28.294Z,73.25
2022-08-26T01:41:16.022Z,73.24
2022-08-26T01:43:59.060Z,73.31
2022-08-26T01:46:34.008Z,73.23
2022-08-26T01:49:11.298Z,73.26
2022-08-26T01:51:48.450Z,73.27
2022-08-26T01:54:31.064Z,73.24
2022-08-26T01:57:13.778Z,73.29
2022-08-26T01:59:47.681Z,73.23
2022-08-26T02:02:21.615Z,73.39
2022-08-26T02:05:02.161Z,73.58
2022-08-26T02:07:41.694Z,73.82
2022-08-26T02:10:17.305Z,74.12
2022-08-26T02:12:55.782Z,73.92
2022-08-26T02:15:37.036Z,74.06
2022-08-26T02:18:13.968Z,73.89
2022-08-26T02:20:52.036Z,73.91
2022-08-26T02:23:38.152Z,74.00
2022-08-26T02:26:26.916Z,74.09
2022-08-26T02:29:16.464Z,74.17
2022-08-26T02:31:53.142Z,74.33
2022-08-26T02:34:39.313Z,74.07
2022-08-26T02:37:19.923Z,74.19
2022-08-26T02:40:04.895Z,74.40
2022-08-26T02:42:39.921Z,74.16
2022-08-26T02:45:23.834Z,74.26
2022-08-26T02:48:01.995Z,74.46
2022-08-26T02:50:38.357Z,74.60
2022-08-26T02:53:14.864Z,74.38
2022-08-26T02:55:55.375Z,74.59
2022-08-26T02:58:37.276Z,74.70
2022-08-26T03:01:32.958Z,74.65
2022-08-26T03:04:15.193Z,74.79
2022-08-26T03:06:53.058Z,74.65
2022-08-26T03:12:30.324Z,75.74
2022-08-26T03:15:17.420Z,75.28
2022-08-26T03:17:59.875Z,75.06
2022-08-26T03:20:40.021Z,75.07
2022-08-26T03:23:37.966Z,74.95
2022-08-26T03:26:18.465Z,74.83
2022-08-26T03:29:13.127Z,74.91
2022-08-26T03:31:47.239Z,75.06
2022-08-26T03:34:25.249Z,75.32
2022-08-26T03:37:03.281Z,75.30
2022-08-26T03:39:41.385Z,75.13
2022-08-26T03:42:22.346Z,75.13
2022-08-26T03:44:54.709Z,75.19
2022-08-26T03:47:38.460Z,75.40
2022-08-26T03:50:29.764Z,75.36
2022-08-26T03:53:12.917Z,75.36
2022-08-26T03:55:55.726Z,75.32
2022-08-26T03:58:43.050Z,75.35
2022-08-26T04:01:44.850Z,75.36
2022-08-26T04:04:22.629Z,75.46
2022-08-26T04:07:13.441Z,75.84
2022-08-26T04:09:47.623Z,75.71
2022-08-26T04:12:27.066Z,75.68
2022-08-26T04:15:09.058Z,75.91
2022-08-26T04:17:47.716Z,75.95
2022-08-26T04:20:23.120Z,76.28
2022-08-26T04:22:57.455Z,76.42
2022-08-26T04:25:37.797Z,76.61
2022-08-26T04:28:16.108Z,76.74
2022-08-26T04:30:50.963Z,76.85
2022-08-26T04:33:34.390Z,76.87
2022-08-26T04:36:20.136Z,77.09
2022-08-26T04:38:58.370Z,77.15
2022-08-26T04:41:38.519Z,77.21
2022-08-26T04:44:17.555Z,77.23
2022-08-26T04:47:06.716Z,77.58
2022-08-26T04:49:44.410Z,77.24
2022-08-26T04:52:23.027Z,77.68
2022-08-26T04:54:57.900Z,77.66
2022-08-26T04:57:34.883Z,77.68
2022-08-26T05:00:16.673Z,77.03
2022-08-26T05:02:55.928Z,76.44
2022-08-26T05:05:36.947Z,74.33
2022-08-26T05:08:11.425Z,73.30
2022-08-26T05:10:58.526Z,70.60
2022-08-26T05:13:36.935Z,66.67
2022-08-26T05:16:19.217Z,64.52
2022-08-26T05:19:00.077Z,62.99
2022-08-26T05:21:37.863Z,63.18
2022-08-26T05:24:25.906Z,62.31
2022-08-26T05:27:02.165Z,61.05
2022-08-26T05:29:40.476Z,60.88
2022-08-26T05:32:15.327Z,60.17
2022-08-26T05:34:58.594Z,59.48
2022-08-26T05:40:26.996Z,58.40
2022-08-26T05:43:13.099Z,56.88
2022-08-26T05:45:52.572Z,55.23
2022-08-26T05:48:25.928Z,53.14
2022-08-26T05:51:08.279Z,50.18
2022-08-26T05:53:55.068Z,45.36
2022-08-26T05:56:30.194Z,41.52
2022-08-26T05:59:06.065Z,39.45
2022-08-26T06:01:58.377Z,36.32
2022-08-26T06:04:34.236Z,33.48
2022-08-26T06:07:11.477Z,32.10
2022-08-26T06:10:31.697Z,30.58
2022-08-26T06:13:08.914Z,28.31
2022-08-26T06:15:49.196Z,26.57
2022-08-26T06:18:28.971Z,26.89
2022-08-26T06:21:16.149Z,24.37
2022-08-26T06:24:11.270Z,22.15
2022-08-26T06:26:50.441Z,21.12
2022-08-26T06:29:29.973Z,20.81
2022-08-26T06:32:15.293Z,19.91
2022-08-26T06:34:50.133Z,19.75
2022-08-26T06:37:27.625Z,18.66
2022-08-26T06:40:10.246Z,18.37
2022-08-26T06:42:47.002Z,17.67
2022-08-26T06:45:28.897Z,16.54
2022-08-26T06:48:27.866Z,16.06
2022-08-26T06:51:19.418Z,16.14
2022-08-26T06:54:23.535Z,15.82
2022-08-26T06:57:01.257Z,15.67
2022-08-26T06:59:39.230Z,15.35
2022-08-26T07:02:21.999Z,14.80
2022-08-26T07:05:25.265Z,13.93
2022-08-26T07:14:15.816Z,12.74
2022-08-26T07:17:13.383Z,13.24
2022-08-26T07:19:55.897Z,14.37
2022-08-26T07:22:32.036Z,15.12
2022-08-26T07:25:32.415Z,15.91
2022-08-26T07:28:43.895Z,17.13
2022-08-26T07:31:27.459Z,18.39
2022-08-26T07:34:09.736Z,19.10
2022-08-26T07:36:48.493Z,19.60
2022-08-26T07:39:31.552Z,20.50
2022-08-26T07:42:16.758Z,21.90
2022-08-26T07:45:00.386Z,22.48
2022-08-26T07:47:35.967Z,23.69
2022-08-26T07:50:11.821Z,23.89
2022-08-26T07:52:55.036Z,24.24
2022-08-26T07:55:35.834Z,24.77
2022-08-26T07:58:16.344Z,24.24
2022-08-26T08:00:52.813Z,23.51
2022-08-26T08:03:54.159Z,24.68
2022-08-26T08:06:57.912Z,25.17
2022-08-26T08:09:41.746Z,25.15
2022-08-26T08:12:25.769Z,25.14
2022-08-26T08:14:57.856Z,25.34
2022-08-26T08:17:31.459Z,25.00
2022-08-26T08:20:07.822Z,26.13
2022-08-26T08:22:40.099Z,25.93
2022-08-26T08:25:14.187Z,26.77
2022-08-26T08:27:46.350Z,26.21
2022-08-26T08:30:22.946Z,26.30
2022-08-26T08:32:56.132Z,26.86
2022-08-26T08:35:31.066Z,26.63
2022-08-26T08:38:06.704Z,26.51
2022-08-26T08:40:49.024Z,25.86
2022-08-26T08:43:40.732Z,26.78
2022-08-26T08:46:18.471Z,26.44
2022-08-26T08:49:01.994Z,26.37
2022-08-26T08:51:52.874Z,26.39
2022-08-26T08:54:33.827Z,26.18
2022-08-26T08:57:29.990Z,26.46
2022-08-26T09:00:30.246Z,27.17
2022-08-26T09:03:31.655Z,27.77
2022-08-26T09:06:42.535Z,27.72
2022-08-26T09:09:46.957Z,27.63
2022-08-26T09:12:29.773Z,26.63
2022-08-26T09:15:28.557Z,25.45
2022-08-26T09:18:18.968Z,24.42
2022-08-26T09:21:01.791Z,24.45
2022-08-26T09:23:41.772Z,24.22
2022-08-26T09:26:16.560Z,23.58
2022-08-26T09:28:58.070Z,22.83
2022-08-26T09:31:38.706Z,23.57
2022-08-26T09:34:30.841Z,22.85
2022-08-26T09:37:05.800Z,23.34
2022-08-26T09:39:43.576Z,23.15
2022-08-26T09:42:33.895Z,22.44
2022-08-26T09:45:11.704Z,22.79
2022-08-26T09:47:51.970Z,22.27
2022-08-26T09:50:34.431Z,22.01
2022-08-26T09:53:28.788Z,22.09
2022-08-26T09:56:24.259Z,22.86
2022-08-26T09:59:02.787Z,22.99
2022-08-26T10:01:45.716Z,22.85
2022-08-26T10:04:32.855Z,22.38
2022-08-26T10:07:35.412Z,22.97
2022-08-26T10:10:27.147Z,22.61
2022-08-26T10:14:05.204Z,22.56
2022-08-26T10:16:59.364Z,22.35
2022-08-26T10:19:56.855Z,22.06
2022-08-26T10:23:02.833Z,22.52
2022-08-26T10:25:54.388Z,22.08
2022-08-26T10:32:28.096Z,22.67
2022-08-26T10:35:07.824Z,21.50
2022-08-26T10:38:07.151Z,21.59
2022-08-26T10:41:02.820Z,21.58
2022-08-26T10:44:02.505Z,22.15
2022-08-26T10:46:50.028Z,22.07
2022-08-26T10:49:27.382Z,21.66
2022-08-26T10:52:22.863Z,22.12
2022-08-26T10:55:24.627Z,22.54
2022-08-26T10:58:13.822Z,22.19
2022-08-26T11:01:41.037Z,21.82
2022-08-26T11:04:43.264Z,22.37
2022-08-26T11:07:40.478Z,22.53
2022-08-26T11:10:24.926Z,22.59
2022-08-26T11:13:09.567Z,22.48
2022-08-26T11:16:05.769Z,23.59
2022-08-26T11:19:04.215Z,22.84
2022-08-26T11:22:01.972Z,22.35
2022-08-26T11:24:44.173Z,22.07
2022-08-26T11:27:29.035Z,22.83
2022-08-26T11:30:07.771Z,21.97
2022-08-26T11:32:51.086Z,22.20
2022-08-26T11:35:32.877Z,22.00
2022-08-26T11:38:27.683Z,22.32
2022-08-26T11:41:10.000Z,22.31
2022-08-26T11:43:50.370Z,22.36
2022-08-26T11:46:28.342Z,21.88
2022-08-26T11:49:06.245Z,22.68
2022-08-26T11:51:48.391Z,22.49
2022-08-26T11:54:47.463Z,21.53
2022-08-26T12:00:33.900Z,22.37
2022-08-26T12:03:18.420Z,22.25
2022-08-26T12:06:01.368Z,22.13
2022-08-26T12:08:41.348Z,21.05
2022-08-26T12:14:31.920Z,21.01
2022-08-26T12:17:17.935Z,21.99
2022-08-26T12:20:09.057Z,22.03
2022-08-26T12:22:50.907Z,23.00
2022-08-26T12:25:25.879Z,23.09
2022-08-26T12:28:57.455Z,22.18
2022-08-26T12:31:40.701Z,21.61
2022-08-26T12:34:22.778Z,22.75
2022-08-26T12:39:41.907Z,22.02
2022-08-26T12:42:18.583Z,21.85
2022-08-26T12:45:02.618Z,21.53
2022-08-26T12:47:44.312Z,22.14
2022-08-26T12:50:21.565Z,22.55
2022-08-26T12:53:20.803Z,22.35
2022-08-26T12:56:25.452Z,21.91
2022-08-26T12:59:25.972Z,21.82
2022-08-26T13:02:12.936Z,21.94
2022-08-26T13:05:00.865Z,22.03
2022-08-26T13:07:45.031Z,22.62
2022-08-26T13:10:43.107Z,22.19
2022-08-26T13:13:43.874Z,22.59
2022-08-26T13:16:17.111Z,22.37
2022-08-26T13:19:02.654Z,23.55
2022-08-26T13:21:49.766Z,23.72
2022-08-26T13:24:26.438Z,22.46
2022-08-26T13:27:02.691Z,23.06
2022-08-26T13:29:41.719Z,24.50
2022-08-26T13:32:29.663Z,24.10
2022-08-26T13:35:08.068Z,24.99
2022-08-26T13:37:53.663Z,24.09
2022-08-26T13:40:34.506Z,23.56
2022-08-26T13:43:26.252Z,23.89
2022-08-26T13:45:59.750Z,24.59
2022-08-26T13:48:37.149Z,23.82
2022-08-26T13:51:20.883Z,23.37
2022-08-26T13:53:55.719Z,23.67
2022-08-26T13:56:34.123Z,23.56
2022-08-26T13:59:11.536Z,23.65
2022-08-26T14:01:49.521Z,23.90
2022-08-26T14:04:32.747Z,22.96
2022-08-26T14:07:10.256Z,22.80
2022-08-26T14:09:44.472Z,23.00
2022-08-26T14:15:18.409Z,25.18
2022-08-26T14:18:00.914Z,25.30
2022-08-26T14:20:42.292Z,24.96
2022-08-26T14:23:21.435Z,23.42
2022-08-26T14:25:54.923Z,23.71
2022-08-26T14:28:38.639Z,24.29
2022-08-26T14:31:44.862Z,23.98
2022-08-26T14:34:26.788Z,24.04
2022-08-26T14:37:08.205Z,24.64
2022-08-26T14:39:47.150Z,24.57
2022-08-26T14:42:31.869Z,24.66
2022-08-26T14:48:22.016Z,25.25
2022-08-26T14:51:10.668Z,24.96
2022-08-26T14:54:10.908Z,25.45
2022-08-26T14:57:02.275Z,25.01
2022-08-26T15:02:50.746Z,25.71
2022-08-26T15:05:52.340Z,26.14
2022-08-26T15:09:01.589Z,26.80
2022-08-26T15:11:50.049Z,26.85
2022-08-26T15:17:43.222Z,25.33
2022-08-26T15:20:42.017Z,27.12
2022-08-26T15:23:24.842Z,26.86
2022-08-26T15:26:12.023Z,26.22
2022-08-26T15:28:53.885Z,25.80
2022-08-26T15:31:57.686Z,26.93
2022-08-26T15:35:03.517Z,28.45
2022-08-26T15:38:03.871Z,29.78
2022-08-26T15:41:03.399Z,30.04
2022-08-26T15:43:38.319Z,30.71
2022-08-26T15:46:40.776Z,32.46
2022-08-26T15:49:48.484Z,32.17
2022-08-26T15:52:24.536Z,31.44
2022-08-26T15:54:59.387Z,31.04
2022-08-26T15:57:40.758Z,29.74
2022-08-26T16:00:25.928Z,31.49
2022-08-26T16:03:31.895Z,33.60
2022-08-26T16:06:20.775Z,35.61
2022-08-26T16:09:07.046Z,35.42
2022-08-26T16:11:50.282Z,36.34
2022-08-26T16:15:02.802Z,36.75
2022-08-26T16:18:06.332Z,36.04
2022-08-26T16:20:42.161Z,36.01
2022-08-26T16:23:32.355Z,37.57
2022-08-26T16:26:42.392Z,37.42
2022-08-26T16:29:26.032Z,38.63
2022-08-26T16:32:11.834Z,40.41
2022-08-26T16:34:56.065Z,40.85
2022-08-26T16:37:30.405Z,40.34
2022-08-26T16:40:17.294Z,39.36
2022-08-26T16:43:02.173Z,39.21
2022-08-26T16:45:44.798Z,41.27
2022-08-26T16:48:28.258Z,41.81
2022-08-26T16:51:12.477Z,42.59
2022-08-26T16:54:02.711Z,43.01
2022-08-26T16:56:43.499Z,43.16
2022-08-26T16:59:23.186Z,44.00
2022-08-26T17:02:02.950Z,44.48
2022-08-26T17:04:54.567Z,44.76
2022-08-26T17:07:39.271Z,44.79
2022-08-26T17:10:18.829Z,44.63
2022-08-26T17:12:57.549Z,44.71
2022-08-26T17:15:32.285Z,44.75
2022-08-26T17:18:06.330Z,44.36
2022-08-26T17:20:38.757Z,45.33
2022-08-26T17:23:11.549Z,46.42
2022-08-26T17:25:57.430Z,45.83
2022-08-26T17:28:33.037Z,46.52
2022-08-26T17:31:08.878Z,47.01
2022-08-26T17:33:44.431Z,46.29
2022-08-26T17:36:19.594Z,46.68
2022-08-26T17:38:52.499Z,46.63
2022-08-26T17:41:30.662Z,47.42
2022-08-26T17:44:08.813Z,48.52
2022-08-26T17:46:46.754Z,48.50
2022-08-26T17:49:22.088Z,49.15
2022-08-26T17:52:01.293Z,48.61
2022-08-26T17:54:37.246Z,49.57
2022-08-26T17:57:12.514Z,50.19
2022-08-26T17:59:47.794Z,50.35
2022-08-26T18:02:24.470Z,50.17
2022-08-26T18:04:56.543Z,50.05
2022-08-26T18:07:43.570Z,50.36
2022-08-26T18:10:47.388Z,49.72
2022-08-26T18:16:23.258Z,49.60
2022-08-26T18:19:08.313Z,50.37
2022-08-26T18:21:43.420Z,51.34
2022-08-26T18:24:14.572Z,51.66
2022-08-26T18:26:52.821Z,51.91
2022-08-26T18:29:50.678Z,52.91
2022-08-26T18:32:24.412Z,53.15
2022-08-26T18:35:02.494Z,53.04
2022-08-26T18:37:38.249Z,53.36
2022-08-26T18:40:38.440Z,53.41
2022-08-26T18:43:18.830Z,53.83
2022-08-26T18:46:05.766Z,54.11
2022-08-26T18:48:40.897Z,53.83
2022-08-26T18:51:25.149Z,54.51
2022-08-26T18:54:08.910Z,54.84
2022-08-26T18:56:45.143Z,54.13
2022-08-26T18:59:48.756Z,54.43
2022-08-26T19:02:21.885Z,53.72
2022-08-26T19:04:59.341Z,53.59
2022-08-26T19:07:40.115Z,53.74
2022-08-26T19:10:41.026Z,54.15
2022-08-26T19:13:18.243Z,54.23
2022-08-26T19:15:50.411Z,54.14
2022-08-26T19:18:25.439Z,54.13
2022-08-26T19:21:24.714Z,53.86
2022-08-26T19:24:05.010Z,54.38
2022-08-26T19:26:48.425Z,54.75
2022-08-26T19:29:27.025Z,54.56
2022-08-26T19:31:58.278Z,55.83
2022-08-26T19:34:33.506Z,56.61
2022-08-26T19:37:09.103Z,56.71
2022-08-26T19:39:43.884Z,56.91
2022-08-26T19:45:20.272Z,57.12
2022-08-26T19:48:23.415Z,57.71
2022-08-26T19:51:08.533Z,58.15
2022-08-26T19:53:44.721Z,58.29
2022-08-26T19:56:19.728Z,58.19
2022-08-26T19:58:57.283Z,58.47
2022-08-26T20:01:35.571Z,59.41
2022-08-26T20:04:21.625Z,59.56
2022-08-26T20:06:57.563Z,59.59
2022-08-26T20:09:39.473Z,59.95
2022-08-26T20:12:15.548Z,59.95
2022-08-26T20:14:58.109Z,60.12
2022-08-26T20:17:36.155Z,60.32
2022-08-26T20:20:34.301Z,60.09
2022-08-26T20:23:21.624Z,60.19
2022-08-26T20:25:54.810Z,60.40
2022-08-26T20:28:33.033Z,60.56
2022-08-26T20:31:07.370Z,60.74
2022-08-26T20:33:46.305Z,61.01
2022-08-26T20:36:27.678Z,61.70
2022-08-26T20:39:04.123Z,61.65
2022-08-26T20:41:41.530Z,61.69
2022-08-26T20:44:11.645Z,61.61
2022-08-26T20:46:54.863Z,61.56
2022-08-26T20:49:31.447Z,61.73
2022-08-26T20:52:07.607Z,61.87
2022-08-26T20:54:50.938Z,61.96
2022-08-26T20:57:29.251Z,62.27
2022-08-26T21:00:05.513Z,62.37
2022-08-26T21:02:39.314Z,63.02
2022-08-26T21:05:13.058Z,62.29
2022-08-26T21:07:48.973Z,62.38
2022-08-26T21:10:31.187Z,62.85
2022-08-26T21:13:12.263Z,63.03
2022-08-26T21:16:02.059Z,63.30
2022-08-26T21:18:42.086Z,63.61
2022-08-26T21:21:19.281Z,63.74
2022-08-26T21:24:08.949Z,64.19
2022-08-26T21:26:43.262Z,64.28
2022-08-26T21:29:23.111Z,64.17
2022-08-26T21:31:57.983Z,64.32
2022-08-26T21:34:40.571Z,64.74
2022-08-26T21:37:20.298Z,64.58
2022-08-26T21:39:58.046Z,64.54
2022-08-26T21:42:39.094Z,64.61
2022-08-26T21:45:16.558Z,65.14
2022-08-26T21:47:48.316Z,64.91
2022-08-26T21:50:45.775Z,65.05
2022-08-26T21:53:33.713Z,65.14
2022-08-26T21:56:18.004Z,65.25
2022-08-26T21:58:56.423Z,65.30
2022-08-26T22:01:41.587Z,65.15
2022-08-26T22:04:29.391Z,65.04
2022-08-26T22:07:08.352Z,65.25
2022-08-26T22:09:50.965Z,65.19
2022-08-26T22:12:28.825Z,65.25
2022-08-26T22:15:06.883Z,65.38
2022-08-26T22:17:49.133Z,65.52
2022-08-26T22:20:28.465Z,65.83
2022-08-26T22:23:32.272Z,65.94
2022-08-26T22:26:25.355Z,66.07
2022-08-26T22:32:50.218Z,66.49
2022-08-26T22:35:30.129Z,66.51
2022-08-26T22:38:07.598Z,66.52
2022-08-26T22:40:51.439Z,66.84
2022-08-26T22:43:30.461Z,67.01
2022-08-26T22:46:11.687Z,66.86
2022-08-26T22:48:47.187Z,67.16
2022-08-26T22:51:34.103Z,67.43
2022-08-26T22:54:10.036Z,67.27
2022-08-26T22:56:54.000Z,67.06
2022-08-26T22:59:32.513Z,66.85
2022-08-26T23:08:02.550Z,67.66
2022-08-26T23:13:31.687Z,67.64
2022-08-26T23:16:10.328Z,68.02
2022-08-26T23:21:44.339Z,68.12
2022-08-26T23:24:18.461Z,68.12
2022-08-26T23:26:56.355Z,68.06
2022-08-26T23:29:30.468Z,68.08
2022-08-26T23:32:13.758Z,68.23
2022-08-26T23:35:01.431Z,68.23
2022-08-26T23:37:46.283Z,68.59
2022-08-26T23:40:28.037Z,68.65
2022-08-26T23:46:03.517Z,68.64
2022-08-26T23:48:42.054Z,68.69
2022-08-26T23:51:44.435Z,68.83
2022-08-26T23:54:55.714Z,68.64
2022-08-26T23:57:36.076Z,69.00
